KFDY

Findlay Airport

Findlay, Ohio, USA
METAR KFDY 231153Z AUTO 27008KT 10SM CLR 06/02 A3007 RMK AO2 SLP182 T00560022 10089 20050 53017
Observed Flight Rules
Oct-23 @ 11:53 UTC (11 minutes ago) Visual Flight Rules
Wind Visibility Clouds
270° at 8 knots 10 miles
  • Clear skies
Temperatures Readings
Current 6°C / 43°F
Dewpoint 2°C / 36°F
Humidity 76%
Altimeter 30.07" Hg
Pressure 1018.2 hPa
Elevation 247
METAR KFDY 231153Z AUTO 27008KT 10SM CLR 06/02 A3007 RMK AO2 SLP182 T00560022 10089 20050 53017
Observed Flight Rules
Oct-23 @ 11:53 UTC
(11 minutes ago)
VFR
Wind Visibility
270° at 8 knots 10 miles
Clouds
  • Clear skies
Temperature Dewpoint
6°C / 43°F 2°C / 36°F
Humidity Altimeter Pressure
76% 30.07" Hg 1018.2 hPa